sensor_id;sensor_type;location;lat;lon;timestamp;temperature;humidity
69418;DHT22;56610;48.872;2.400;2023-01-15T00:01:28;11.30;99.90
69418;DHT22;56610;48.872;2.400;2023-01-15T00:03:55;11.40;99.90
69418;DHT22;56610;48.872;2.400;2023-01-15T00:06:22;11.40;99.90
69418;DHT22;56610;48.872;2.400;2023-01-15T00:08:49;11.50;99.90
69418;DHT22;56610;48.872;2.400;2023-01-15T00:11:15;11.50;99.90
69418;DHT22;56610;48.872;2.400;2023-01-15T00:13:41;11.50;99.90
69418;DHT22;56610;48.872;2.400;2023-01-15T00:16:10;11.50;99.90
69418;DHT22;56610;48.872;2.400;2023-01-15T00:18:36;11.40;99.90
69418;DHT22;56610;48.872;2.400;2023-01-15T00:21:04;11.40;99.90
69418;DHT22;56610;48.872;2.400;2023-01-15T00:23:30;11.40;99.90
69418;DHT22;56610;48.872;2.400;2023-01-15T00:26:16;11.40;99.90
69418;DHT22;56610;48.872;2.400;2023-01-15T00:29:00;11.30;99.90
69418;DHT22;56610;48.872;2.400;2023-01-15T00:31:27;11.10;99.90
69418;DHT22;56610;48.872;2.400;2023-01-15T00:33:53;11.10;99.90
69418;DHT22;56610;48.872;2.400;2023-01-15T00:36:18;11.10;99.90
69418;DHT22;56610;48.872;2.400;2023-01-15T00:38:44;11.20;99.90
69418;DHT22;56610;48.872;2.400;2023-01-15T00:41:10;11.20;99.90
69418;DHT22;56610;48.872;2.400;2023-01-15T00:43:35;11.20;99.90
69418;DHT22;56610;48.872;2.400;2023-01-15T00:46:01;11.20;99.90
69418;DHT22;56610;48.872;2.400;2023-01-15T00:48:29;11.20;99.90
69418;DHT22;56610;48.872;2.400;2023-01-15T00:50:55;11.30;99.90
69418;DHT22;56610;48.872;2.400;2023-01-15T00:53:20;11.20;99.90
69418;DHT22;56610;48.872;2.400;2023-01-15T00:55:46;11.10;99.90
69418;DHT22;56610;48.872;2.400;2023-01-15T00:58:11;11.20;99.90
69418;DHT22;56610;48.872;2.400;2023-01-15T01:00:37;11.10;99.90
69418;DHT22;56610;48.872;2.400;2023-01-15T01:03:02;11.00;99.90
69418;DHT22;56610;48.872;2.400;2023-01-15T01:05:29;10.90;99.90
69418;DHT22;56610;48.872;2.400;2023-01-15T01:07:55;11.00;99.90
69418;DHT22;56610;48.872;2.400;2023-01-15T01:10:20;11.10;99.90
69418;DHT22;56610;48.872;2.400;2023-01-15T01:12:46;11.10;99.90
69418;DHT22;56610;48.872;2.400;2023-01-15T01:15:16;10.90;99.90
69418;DHT22;56610;48.872;2.400;2023-01-15T01:17:42;11.00;99.90
69418;DHT22;56610;48.872;2.400;2023-01-15T01:20:08;11.00;99.90
69418;DHT22;56610;48.872;2.400;2023-01-15T01:22:34;11.00;99.90
69418;DHT22;56610;48.872;2.400;2023-01-15T01:25:01;11.00;99.90
69418;DHT22;56610;48.872;2.400;2023-01-15T01:27:26;10.90;99.90
69418;DHT22;56610;48.872;2.400;2023-01-15T01:29:52;10.90;99.90
69418;DHT22;56610;48.872;2.400;2023-01-15T01:32:17;10.80;99.90
69418;DHT22;56610;48.872;2.400;2023-01-15T01:35:03;10.80;99.90
69418;DHT22;56610;48.872;2.400;2023-01-15T01:37:29;10.70;99.90
69418;DHT22;56610;48.872;2.400;2023-01-15T01:39:55;10.80;99.90
69418;DHT22;56610;48.872;2.400;2023-01-15T01:42:21;10.90;99.90
69418;DHT22;56610;48.872;2.400;2023-01-15T01:47:32;11.10;99.90
69418;DHT22;56610;48.872;2.400;2023-01-15T01:50:03;11.20;99.90
69418;DHT22;56610;48.872;2.400;2023-01-15T01:52:35;11.20;99.90
69418;DHT22;56610;48.872;2.400;2023-01-15T01:55:03;11.20;99.90
69418;DHT22;56610;48.872;2.400;2023-01-15T01:57:29;11.20;99.90
69418;DHT22;56610;48.872;2.400;2023-01-15T01:59:56;11.10;99.90
69418;DHT22;56610;48.872;2.400;2023-01-15T02:02:23;11.00;99.90
69418;DHT22;56610;48.872;2.400;2023-01-15T02:04:49;10.90;99.90
69418;DHT22;56610;48.872;2.400;2023-01-15T02:07:15;11.00;99.90
69418;DHT22;56610;48.872;2.400;2023-01-15T02:09:41;11.00;99.90
69418;DHT22;56610;48.872;2.400;2023-01-15T02:18:01;10.90;99.90
69418;DHT22;56610;48.872;2.400;2023-01-15T02:20:54;11.00;99.90
69418;DHT22;56610;48.872;2.400;2023-01-15T02:28:39;10.80;99.90
69418;DHT22;56610;48.872;2.400;2023-01-15T02:31:20;10.90;99.90
69418;DHT22;56610;48.872;2.400;2023-01-15T02:34:00;10.80;99.90
69418;DHT22;56610;48.872;2.400;2023-01-15T02:36:31;10.80;99.90
69418;DHT22;56610;48.872;2.400;2023-01-15T02:39:00;10.80;99.90
69418;DHT22;56610;48.872;2.400;2023-01-15T02:41:35;10.90;99.90
69418;DHT22;56610;48.872;2.400;2023-01-15T02:44:04;10.80;99.90
69418;DHT22;56610;48.872;2.400;2023-01-15T02:46:32;10.70;99.90
69418;DHT22;56610;48.872;2.400;2023-01-15T02:48:59;10.70;99.90
69418;DHT22;56610;48.872;2.400;2023-01-15T02:51:30;10.80;99.90
69418;DHT22;56610;48.872;2.400;2023-01-15T02:54:00;10.80;99.90
69418;DHT22;56610;48.872;2.400;2023-01-15T02:56:29;11.00;99.90
69418;DHT22;56610;48.872;2.400;2023-01-15T02:58:59;11.00;99.90
69418;DHT22;56610;48.872;2.400;2023-01-15T03:01:34;11.00;99.90
69418;DHT22;56610;48.872;2.400;2023-01-15T03:04:09;11.00;99.90
69418;DHT22;56610;48.872;2.400;2023-01-15T03:09:13;11.10;99.90
69418;DHT22;56610;48.872;2.400;2023-01-15T03:11:45;11.00;99.90
69418;DHT22;56610;48.872;2.400;2023-01-15T03:14:27;10.90;99.90
69418;DHT22;56610;48.872;2.400;2023-01-15T03:17:00;10.80;99.90
69418;DHT22;56610;48.872;2.400;2023-01-15T03:19:46;10.80;99.90
69418;DHT22;56610;48.872;2.400;2023-01-15T03:22:31;10.80;99.90
69418;DHT22;56610;48.872;2.400;2023-01-15T03:25:15;10.80;99.90
69418;DHT22;56610;48.872;2.400;2023-01-15T03:27:42;10.80;99.90
69418;DHT22;56610;48.872;2.400;2023-01-15T03:30:15;10.80;99.90
69418;DHT22;56610;48.872;2.400;2023-01-15T03:32:41;10.80;99.90
69418;DHT22;56610;48.872;2.400;2023-01-15T03:35:38;10.80;99.90
69418;DHT22;56610;48.872;2.400;2023-01-15T03:37:53;10.80;99.90
69418;DHT22;56610;48.872;2.400;2023-01-15T03:40:20;10.90;99.90
69418;DHT22;56610;48.872;2.400;2023-01-15T03:42:51;10.80;99.90
69418;DHT22;56610;48.872;2.400;2023-01-15T03:45:39;10.90;99.90
69418;DHT22;56610;48.872;2.400;2023-01-15T03:53:39;10.40;99.90
69418;DHT22;56610;48.872;2.400;2023-01-15T03:56:13;10.40;99.90
69418;DHT22;56610;48.872;2.400;2023-01-15T03:58:54;10.30;99.90
69418;DHT22;56610;48.872;2.400;2023-01-15T04:01:25;10.40;99.90
69418;DHT22;56610;48.872;2.400;2023-01-15T04:03:53;10.40;99.90
69418;DHT22;56610;48.872;2.400;2023-01-15T04:06:20;10.60;99.90
69418;DHT22;56610;48.872;2.400;2023-01-15T04:08:47;10.50;99.90
69418;DHT22;56610;48.872;2.400;2023-01-15T04:11:21;10.40;99.90
69418;DHT22;56610;48.872;2.400;2023-01-15T04:13:47;10.50;99.90
69418;DHT22;56610;48.872;2.400;2023-01-15T04:16:13;10.50;99.90
69418;DHT22;56610;48.872;2.400;2023-01-15T04:18:38;10.40;99.90
69418;DHT22;56610;48.872;2.400;2023-01-15T04:23:50;10.50;99.90
69418;DHT22;56610;48.872;2.400;2023-01-15T04:26:16;10.50;99.90
69418;DHT22;56610;48.872;2.400;2023-01-15T04:28:42;10.50;99.90
69418;DHT22;56610;48.872;2.400;2023-01-15T04:31:08;10.40;99.90
69418;DHT22;56610;48.872;2.400;2023-01-15T04:33:34;10.40;99.90
69418;DHT22;56610;48.872;2.400;2023-01-15T04:36:01;10.50;99.90
69418;DHT22;56610;48.872;2.400;2023-01-15T04:38:27;10.50;99.90
69418;DHT22;56610;48.872;2.400;2023-01-15T04:40:52;10.50;99.90
69418;DHT22;56610;48.872;2.400;2023-01-15T04:43:37;10.50;99.90
69418;DHT22;56610;48.872;2.400;2023-01-15T04:46:23;10.50;99.90
69418;DHT22;56610;48.872;2.400;2023-01-15T04:48:49;10.40;99.90
69418;DHT22;56610;48.872;2.400;2023-01-15T04:51:15;10.40;99.90
69418;DHT22;56610;48.872;2.400;2023-01-15T04:53:41;10.50;99.90
69418;DHT22;56610;48.872;2.400;2023-01-15T04:56:07;10.40;99.90
69418;DHT22;56610;48.872;2.400;2023-01-15T04:58:33;10.30;99.90
69418;DHT22;56610;48.872;2.400;2023-01-15T05:00:59;10.30;99.90
69418;DHT22;56610;48.872;2.400;2023-01-15T05:03:28;10.30;99.90
69418;DHT22;56610;48.872;2.400;2023-01-15T05:05:53;10.20;99.90
69418;DHT22;56610;48.872;2.400;2023-01-15T05:08:19;10.10;99.90
69418;DHT22;56610;48.872;2.400;2023-01-15T05:10:44;10.00;99.90
69418;DHT22;56610;48.872;2.400;2023-01-15T05:13:10;10.00;99.90
69418;DHT22;56610;48.872;2.400;2023-01-15T05:15:36;10.10;99.90
69418;DHT22;56610;48.872;2.400;2023-01-15T05:18:03;10.10;99.90
69418;DHT22;56610;48.872;2.400;2023-01-15T05:20:29;10.20;99.90
69418;DHT22;56610;48.872;2.400;2023-01-15T05:22:54;10.10;99.90
69418;DHT22;56610;48.872;2.400;2023-01-15T05:25:20;10.00;99.90
69418;DHT22;56610;48.872;2.400;2023-01-15T05:27:46;10.00;99.90
69418;DHT22;56610;48.872;2.400;2023-01-15T05:30:11;10.10;99.90
69418;DHT22;56610;48.872;2.400;2023-01-15T05:32:38;10.10;99.90
69418;DHT22;56610;48.872;2.400;2023-01-15T05:35:04;10.10;99.90
69418;DHT22;56610;48.872;2.400;2023-01-15T05:37:30;10.10;99.90
69418;DHT22;56610;48.872;2.400;2023-01-15T05:39:56;10.20;99.90
69418;DHT22;56610;48.872;2.400;2023-01-15T05:42:21;10.20;99.90
69418;DHT22;56610;48.872;2.400;2023-01-15T05:44:47;10.30;99.90
69418;DHT22;56610;48.872;2.400;2023-01-15T05:47:12;10.30;99.90
69418;DHT22;56610;48.872;2.400;2023-01-15T05:49:39;10.30;99.90
69418;DHT22;56610;48.872;2.400;2023-01-15T05:52:04;10.40;99.90
69418;DHT22;56610;48.872;2.400;2023-01-15T05:54:32;10.50;99.90
69418;DHT22;56610;48.872;2.400;2023-01-15T05:56:58;10.40;99.90
69418;DHT22;56610;48.872;2.400;2023-01-15T05:59:26;10.30;99.90
69418;DHT22;56610;48.872;2.400;2023-01-15T06:01:53;10.30;99.90
69418;DHT22;56610;48.872;2.400;2023-01-15T06:04:19;10.30;99.90
69418;DHT22;56610;48.872;2.400;2023-01-15T06:06:48;10.30;99.90
69418;DHT22;56610;48.872;2.400;2023-01-15T06:09:14;10.30;99.90
69418;DHT22;56610;48.872;2.400;2023-01-15T06:11:40;10.30;99.90
69418;DHT22;56610;48.872;2.400;2023-01-15T06:14:06;10.10;99.90
69418;DHT22;56610;48.872;2.400;2023-01-15T06:16:32;10.10;99.90
69418;DHT22;56610;48.872;2.400;2023-01-15T06:19:02;10.00;99.90
69418;DHT22;56610;48.872;2.400;2023-01-15T06:21:29;9.90;99.90
69418;DHT22;56610;48.872;2.400;2023-01-15T06:23:55;10.00;99.90
69418;DHT22;56610;48.872;2.400;2023-01-15T06:26:20;10.00;99.90
69418;DHT22;56610;48.872;2.400;2023-01-15T06:28:47;9.90;99.90
69418;DHT22;56610;48.872;2.400;2023-01-15T06:31:15;9.90;99.90
69418;DHT22;56610;48.872;2.400;2023-01-15T06:33:41;9.80;99.90
69418;DHT22;56610;48.872;2.400;2023-01-15T06:36:12;9.80;99.90
69418;DHT22;56610;48.872;2.400;2023-01-15T06:38:39;9.70;99.90
69418;DHT22;56610;48.872;2.400;2023-01-15T06:41:06;9.70;99.90
69418;DHT22;56610;48.872;2.400;2023-01-15T06:43:51;9.60;99.90
69418;DHT22;56610;48.872;2.400;2023-01-15T06:46:37;9.50;99.90
69418;DHT22;56610;48.872;2.400;2023-01-15T06:49:21;9.50;99.90
69418;DHT22;56610;48.872;2.400;2023-01-15T06:51:46;9.60;99.90
69418;DHT22;56610;48.872;2.400;2023-01-15T06:54:12;9.60;99.90
69418;DHT22;56610;48.872;2.400;2023-01-15T06:56:37;9.60;99.90
69418;DHT22;56610;48.872;2.400;2023-01-15T06:59:03;9.60;99.90
69418;DHT22;56610;48.872;2.400;2023-01-15T07:01:28;9.70;99.90
69418;DHT22;56610;48.872;2.400;2023-01-15T07:03:55;9.80;99.90
69418;DHT22;56610;48.872;2.400;2023-01-15T07:06:21;9.80;99.90
69418;DHT22;56610;48.872;2.400;2023-01-15T07:08:47;9.80;99.90
69418;DHT22;56610;48.872;2.400;2023-01-15T07:11:12;9.70;99.90
69418;DHT22;56610;48.872;2.400;2023-01-15T07:13:39;9.70;99.90
69418;DHT22;56610;48.872;2.400;2023-01-15T07:16:04;9.50;99.90
69418;DHT22;56610;48.872;2.400;2023-01-15T07:18:50;9.50;99.90
69418;DHT22;56610;48.872;2.400;2023-01-15T07:21:16;9.60;99.90
69418;DHT22;56610;48.872;2.400;2023-01-15T07:23:41;9.60;99.90
69418;DHT22;56610;48.872;2.400;2023-01-15T07:26:07;9.60;99.90
69418;DHT22;56610;48.872;2.400;2023-01-15T07:28:32;9.60;99.90
69418;DHT22;56610;48.872;2.400;2023-01-15T07:30:58;9.50;99.90
69418;DHT22;56610;48.872;2.400;2023-01-15T07:33:23;9.40;99.90
69418;DHT22;56610;48.872;2.400;2023-01-15T07:35:49;9.40;99.90
69418;DHT22;56610;48.872;2.400;2023-01-15T07:38:14;9.50;99.90
69418;DHT22;56610;48.872;2.400;2023-01-15T07:40:40;9.50;99.90
69418;DHT22;56610;48.872;2.400;2023-01-15T07:43:07;9.60;99.90
69418;DHT22;56610;48.872;2.400;2023-01-15T07:45:51;9.50;99.90
69418;DHT22;56610;48.872;2.400;2023-01-15T07:48:35;9.40;99.90
69418;DHT22;56610;48.872;2.400;2023-01-15T07:51:19;9.40;99.90
69418;DHT22;56610;48.872;2.400;2023-01-15T07:53:44;9.40;99.90
69418;DHT22;56610;48.872;2.400;2023-01-15T07:56:10;9.40;99.90
69418;DHT22;56610;48.872;2.400;2023-01-15T07:58:36;9.30;99.90
69418;DHT22;56610;48.872;2.400;2023-01-15T08:01:01;9.20;99.90
69418;DHT22;56610;48.872;2.400;2023-01-15T08:03:27;9.30;99.90
69418;DHT22;56610;48.872;2.400;2023-01-15T08:05:53;9.20;99.90
69418;DHT22;56610;48.872;2.400;2023-01-15T08:08:19;9.20;99.90
69418;DHT22;56610;48.872;2.400;2023-01-15T08:10:44;9.10;99.90
69418;DHT22;56610;48.872;2.400;2023-01-15T08:13:28;9.10;99.90
69418;DHT22;56610;48.872;2.400;2023-01-15T08:16:12;9.10;99.90
69418;DHT22;56610;48.872;2.400;2023-01-15T08:18:38;9.20;99.90
69418;DHT22;56610;48.872;2.400;2023-01-15T08:21:04;9.10;99.90
69418;DHT22;56610;48.872;2.400;2023-01-15T08:23:30;9.20;99.90
69418;DHT22;56610;48.872;2.400;2023-01-15T08:25:59;9.20;99.90
69418;DHT22;56610;48.872;2.400;2023-01-15T08:28:25;9.30;99.90
69418;DHT22;56610;48.872;2.400;2023-01-15T08:30:51;9.40;99.90
69418;DHT22;56610;48.872;2.400;2023-01-15T08:33:17;9.40;99.90
69418;DHT22;56610;48.872;2.400;2023-01-15T08:35:42;9.40;99.90
69418;DHT22;56610;48.872;2.400;2023-01-15T08:38:08;9.50;99.90
69418;DHT22;56610;48.872;2.400;2023-01-15T08:40:35;9.40;99.90
69418;DHT22;56610;48.872;2.400;2023-01-15T08:43:20;9.30;99.90
69418;DHT22;56610;48.872;2.400;2023-01-15T08:45:48;9.40;99.90
69418;DHT22;56610;48.872;2.400;2023-01-15T08:48:13;9.40;99.90
69418;DHT22;56610;48.872;2.400;2023-01-15T08:50:39;9.40;99.90
69418;DHT22;56610;48.872;2.400;2023-01-15T08:53:04;9.40;99.90
69418;DHT22;56610;48.872;2.400;2023-01-15T08:55:30;9.50;99.90
69418;DHT22;56610;48.872;2.400;2023-01-15T08:57:57;9.70;99.90
69418;DHT22;56610;48.872;2.400;2023-01-15T09:00:22;9.60;99.90
69418;DHT22;56610;48.872;2.400;2023-01-15T09:02:48;9.50;99.90
69418;DHT22;56610;48.872;2.400;2023-01-15T09:05:14;9.50;99.90
69418;DHT22;56610;48.872;2.400;2023-01-15T09:07:40;9.40;99.90
69418;DHT22;56610;48.872;2.400;2023-01-15T09:10:06;9.30;99.90
69418;DHT22;56610;48.872;2.400;2023-01-15T09:12:31;9.30;99.90
69418;DHT22;56610;48.872;2.400;2023-01-15T09:14:57;9.30;99.90
69418;DHT22;56610;48.872;2.400;2023-01-15T09:17:23;9.20;99.90
69418;DHT22;56610;48.872;2.400;2023-01-15T09:19:48;9.20;99.90
69418;DHT22;56610;48.872;2.400;2023-01-15T09:22:14;9.30;99.90
69418;DHT22;56610;48.872;2.400;2023-01-15T09:24:39;9.40;99.90
69418;DHT22;56610;48.872;2.400;2023-01-15T09:27:05;9.30;99.90
69418;DHT22;56610;48.872;2.400;2023-01-15T09:29:32;9.40;99.90
69418;DHT22;56610;48.872;2.400;2023-01-15T09:31:57;9.30;99.90
69418;DHT22;56610;48.872;2.400;2023-01-15T09:34:23;9.30;99.90
69418;DHT22;56610;48.872;2.400;2023-01-15T09:36:48;9.20;99.90
69418;DHT22;56610;48.872;2.400;2023-01-15T09:39:15;9.10;99.90
69418;DHT22;56610;48.872;2.400;2023-01-15T09:47:33;9.10;99.90
69418;DHT22;56610;48.872;2.400;2023-01-15T09:55:27;9.20;99.90
69418;DHT22;56610;48.872;2.400;2023-01-15T09:57:57;9.10;99.90
69418;DHT22;56610;48.872;2.400;2023-01-15T10:00:25;9.30;99.90
69418;DHT22;56610;48.872;2.400;2023-01-15T10:05:42;9.40;99.90
69418;DHT22;56610;48.872;2.400;2023-01-15T10:08:16;9.40;99.90
69418;DHT22;56610;48.872;2.400;2023-01-15T10:10:47;9.40;99.90
69418;DHT22;56610;48.872;2.400;2023-01-15T10:13:26;9.40;99.90
69418;DHT22;56610;48.872;2.400;2023-01-15T10:15:53;9.50;99.90
69418;DHT22;56610;48.872;2.400;2023-01-15T10:18:22;9.60;99.90
69418;DHT22;56610;48.872;2.400;2023-01-15T10:31:31;9.70;99.90
69418;DHT22;56610;48.872;2.400;2023-01-15T10:36:55;9.70;99.90
69418;DHT22;56610;48.872;2.400;2023-01-15T10:39:36;9.80;99.90
69418;DHT22;56610;48.872;2.400;2023-01-15T10:45:11;10.00;99.90
69418;DHT22;56610;48.872;2.400;2023-01-15T10:47:38;10.20;99.90
69418;DHT22;56610;48.872;2.400;2023-01-15T10:50:15;10.30;99.90
69418;DHT22;56610;48.872;2.400;2023-01-15T10:53:07;10.40;99.90
69418;DHT22;56610;48.872;2.400;2023-01-15T10:55:36;10.50;99.90
69418;DHT22;56610;48.872;2.400;2023-01-15T11:00:37;10.60;99.90
69418;DHT22;56610;48.872;2.400;2023-01-15T11:03:08;10.70;99.90
69418;DHT22;56610;48.872;2.400;2023-01-15T11:05:39;10.80;99.90
69418;DHT22;56610;48.872;2.400;2023-01-15T11:08:09;10.80;99.90
69418;DHT22;56610;48.872;2.400;2023-01-15T11:10:38;10.80;99.90
69418;DHT22;56610;48.872;2.400;2023-01-15T11:13:22;10.80;99.90
69418;DHT22;56610;48.872;2.400;2023-01-15T11:16:16;11.00;99.90
69418;DHT22;56610;48.872;2.400;2023-01-15T11:19:04;11.20;99.90
69418;DHT22;56610;48.872;2.400;2023-01-15T11:21:49;11.40;99.90
69418;DHT22;56610;48.872;2.400;2023-01-15T11:24:16;11.40;99.90
69418;DHT22;56610;48.872;2.400;2023-01-15T11:26:47;11.60;99.90
69418;DHT22;56610;48.872;2.400;2023-01-15T11:29:30;11.60;99.90
69418;DHT22;56610;48.872;2.400;2023-01-15T11:31:57;11.80;99.90
69418;DHT22;56610;48.872;2.400;2023-01-15T11:34:22;12.00;99.90
69418;DHT22;56610;48.872;2.400;2023-01-15T11:37:00;12.20;99.90
69418;DHT22;56610;48.872;2.400;2023-01-15T11:39:27;12.20;99.90
69418;DHT22;56610;48.872;2.400;2023-01-15T11:42:03;12.20;99.90
69418;DHT22;56610;48.872;2.400;2023-01-15T11:44:56;12.30;99.90
69418;DHT22;56610;48.872;2.400;2023-01-15T11:47:54;12.30;99.90
69418;DHT22;56610;48.872;2.400;2023-01-15T11:50:53;12.40;99.90
69418;DHT22;56610;48.872;2.400;2023-01-15T11:53:24;12.30;99.90
69418;DHT22;56610;48.872;2.400;2023-01-15T11:55:57;12.10;99.90
69418;DHT22;56610;48.872;2.400;2023-01-15T11:58:26;12.10;99.90
69418;DHT22;56610;48.872;2.400;2023-01-15T12:00:53;12.00;99.90
69418;DHT22;56610;48.872;2.400;2023-01-15T12:03:28;11.90;99.90
69418;DHT22;56610;48.872;2.400;2023-01-15T12:06:01;11.90;99.90
69418;DHT22;56610;48.872;2.400;2023-01-15T12:08:38;11.90;99.90
69418;DHT22;56610;48.872;2.400;2023-01-15T12:16:52;12.00;99.90
69418;DHT22;56610;48.872;2.400;2023-01-15T12:22:32;12.00;99.90
69418;DHT22;56610;48.872;2.400;2023-01-15T12:27:56;12.40;99.90
69418;DHT22;56610;48.872;2.400;2023-01-15T12:30:47;12.40;99.90
69418;DHT22;56610;48.872;2.400;2023-01-15T12:33:51;12.60;99.90
69418;DHT22;56610;48.872;2.400;2023-01-15T12:36:29;12.60;99.90
69418;DHT22;56610;48.872;2.400;2023-01-15T12:39:00;12.60;99.90
69418;DHT22;56610;48.872;2.400;2023-01-15T12:41:39;12.60;99.90
69418;DHT22;56610;48.872;2.400;2023-01-15T12:44:40;12.60;99.90
69418;DHT22;56610;48.872;2.400;2023-01-15T12:50:51;12.10;99.90
69418;DHT22;56610;48.872;2.400;2023-01-15T12:53:26;12.20;99.90
69418;DHT22;56610;48.872;2.400;2023-01-15T13:04:56;12.30;99.90
69418;DHT22;56610;48.872;2.400;2023-01-15T13:07:30;12.40;99.90
69418;DHT22;56610;48.872;2.400;2023-01-15T13:10:19;12.40;99.90
69418;DHT22;56610;48.872;2.400;2023-01-15T13:12:46;12.40;99.90
69418;DHT22;56610;48.872;2.400;2023-01-15T13:15:14;12.50;99.90
69418;DHT22;56610;48.872;2.400;2023-01-15T13:20:40;12.60;99.90
69418;DHT22;56610;48.872;2.400;2023-01-15T13:28:33;12.30;99.90
69418;DHT22;56610;48.872;2.400;2023-01-15T13:33:43;12.10;99.90
69418;DHT22;56610;48.872;2.400;2023-01-15T13:36:32;12.00;99.90
69418;DHT22;56610;48.872;2.400;2023-01-15T13:39:00;11.90;99.90
69418;DHT22;56610;48.872;2.400;2023-01-15T13:41:29;11.90;99.90
69418;DHT22;56610;48.872;2.400;2023-01-15T13:44:22;11.80;99.90
69418;DHT22;56610;48.872;2.400;2023-01-15T13:49:39;11.70;99.90
69418;DHT22;56610;48.872;2.400;2023-01-15T13:52:07;11.70;99.90
69418;DHT22;56610;48.872;2.400;2023-01-15T13:54:42;11.80;99.90
69418;DHT22;56610;48.872;2.400;2023-01-15T13:57:44;11.70;99.90
69418;DHT22;56610;48.872;2.400;2023-01-15T14:00:32;11.60;99.90
69418;DHT22;56610;48.872;2.400;2023-01-15T14:03:22;11.60;99.90
69418;DHT22;56610;48.872;2.400;2023-01-15T14:05:59;11.50;99.90
69418;DHT22;56610;48.872;2.400;2023-01-15T14:08:37;11.50;99.90
69418;DHT22;56610;48.872;2.400;2023-01-15T14:11:03;11.40;99.90
69418;DHT22;56610;48.872;2.400;2023-01-15T14:19:12;11.30;99.90
69418;DHT22;56610;48.872;2.400;2023-01-15T14:30:38;11.30;99.90
69418;DHT22;56610;48.872;2.400;2023-01-15T14:36:19;11.20;99.90
69418;DHT22;56610;48.872;2.400;2023-01-15T14:38:51;11.20;99.90
69418;DHT22;56610;48.872;2.400;2023-01-15T14:41:25;11.20;99.90
69418;DHT22;56610;48.872;2.400;2023-01-15T14:43:51;11.10;99.90
69418;DHT22;56610;48.872;2.400;2023-01-15T14:46:30;11.20;99.90
69418;DHT22;56610;48.872;2.400;2023-01-15T14:49:03;11.10;99.90
69418;DHT22;56610;48.872;2.400;2023-01-15T14:51:30;11.10;99.90
69418;DHT22;56610;48.872;2.400;2023-01-15T14:54:01;11.20;99.90
69418;DHT22;56610;48.872;2.400;2023-01-15T14:56:34;11.20;99.90
69418;DHT22;56610;48.872;2.400;2023-01-15T14:59:20;11.20;99.90
69418;DHT22;56610;48.872;2.400;2023-01-15T15:01:50;11.10;99.90
69418;DHT22;56610;48.872;2.400;2023-01-15T15:04:39;11.00;99.90
69418;DHT22;56610;48.872;2.400;2023-01-15T15:07:16;11.00;99.90
69418;DHT22;56610;48.872;2.400;2023-01-15T15:09:56;11.10;99.90
69418;DHT22;56610;48.872;2.400;2023-01-15T15:12:47;11.10;99.90
69418;DHT22;56610;48.872;2.400;2023-01-15T15:23:25;11.10;99.90
69418;DHT22;56610;48.872;2.400;2023-01-15T15:26:00;11.20;99.90
69418;DHT22;56610;48.872;2.400;2023-01-15T15:28:26;11.30;99.90
69418;DHT22;56610;48.872;2.400;2023-01-15T15:30:53;11.10;99.90
69418;DHT22;56610;48.872;2.400;2023-01-15T15:33:24;11.10;99.90
69418;DHT22;56610;48.872;2.400;2023-01-15T15:35:56;11.10;99.90
69418;DHT22;56610;48.872;2.400;2023-01-15T15:38:24;11.10;99.90
69418;DHT22;56610;48.872;2.400;2023-01-15T15:40:55;11.10;99.90
69418;DHT22;56610;48.872;2.400;2023-01-15T15:43:28;11.10;99.90
69418;DHT22;56610;48.872;2.400;2023-01-15T15:46:47;11.10;99.90
69418;DHT22;56610;48.872;2.400;2023-01-15T15:49:38;11.10;99.90
69418;DHT22;56610;48.872;2.400;2023-01-15T15:52:21;11.00;99.90
69418;DHT22;56610;48.872;2.400;2023-01-15T15:55:02;11.10;99.90
69418;DHT22;56610;48.872;2.400;2023-01-15T15:57:31;11.10;99.90
69418;DHT22;56610;48.872;2.400;2023-01-15T15:59:58;11.10;99.90
69418;DHT22;56610;48.872;2.400;2023-01-15T16:02:26;11.00;99.90
69418;DHT22;56610;48.872;2.400;2023-01-15T16:04:58;11.00;99.90
69418;DHT22;56610;48.872;2.400;2023-01-15T16:07:27;10.90;99.90
69418;DHT22;56610;48.872;2.400;2023-01-15T16:09:57;11.10;99.90
69418;DHT22;56610;48.872;2.400;2023-01-15T16:12:25;10.90;99.90
69418;DHT22;56610;48.872;2.400;2023-01-15T16:14:54;10.90;99.90
69418;DHT22;56610;48.872;2.400;2023-01-15T16:17:21;10.90;99.90
69418;DHT22;56610;48.872;2.400;2023-01-15T16:19:49;11.00;99.90
69418;DHT22;56610;48.872;2.400;2023-01-15T16:22:16;10.80;99.90
69418;DHT22;56610;48.872;2.400;2023-01-15T16:24:52;10.90;99.90
69418;DHT22;56610;48.872;2.400;2023-01-15T16:27:18;10.90;99.90
69418;DHT22;56610;48.872;2.400;2023-01-15T16:29:48;10.80;99.90
69418;DHT22;56610;48.872;2.400;2023-01-15T16:32:21;10.70;99.90
69418;DHT22;56610;48.872;2.400;2023-01-15T16:34:47;10.80;99.90
69418;DHT22;56610;48.872;2.400;2023-01-15T16:37:25;10.70;99.90
69418;DHT22;56610;48.872;2.400;2023-01-15T16:39:51;10.70;99.90
69418;DHT22;56610;48.872;2.400;2023-01-15T16:42:26;10.70;99.90
69418;DHT22;56610;48.872;2.400;2023-01-15T16:44:57;10.70;99.90
69418;DHT22;56610;48.872;2.400;2023-01-15T16:47:25;10.60;99.90
69418;DHT22;56610;48.872;2.400;2023-01-15T16:49:51;10.60;99.90
69418;DHT22;56610;48.872;2.400;2023-01-15T16:55:02;10.40;99.90
69418;DHT22;56610;48.872;2.400;2023-01-15T16:57:30;10.40;99.90
69418;DHT22;56610;48.872;2.400;2023-01-15T16:59:57;10.30;99.90
69418;DHT22;56610;48.872;2.400;2023-01-15T17:02:39;10.40;99.90
69418;DHT22;56610;48.872;2.400;2023-01-15T17:05:21;10.30;99.90
69418;DHT22;56610;48.872;2.400;2023-01-15T17:07:48;10.10;99.90
69418;DHT22;56610;48.872;2.400;2023-01-15T17:10:27;10.20;99.90
69418;DHT22;56610;48.872;2.400;2023-01-15T17:12:53;10.20;99.90
69418;DHT22;56610;48.872;2.400;2023-01-15T17:17:52;10.20;99.90
69418;DHT22;56610;48.872;2.400;2023-01-15T17:20:20;10.20;99.90
69418;DHT22;56610;48.872;2.400;2023-01-15T17:22:51;10.10;99.90
69418;DHT22;56610;48.872;2.400;2023-01-15T17:27:47;10.10;99.90
69418;DHT22;56610;48.872;2.400;2023-01-15T17:30:13;10.00;99.90
69418;DHT22;56610;48.872;2.400;2023-01-15T17:32:40;10.10;99.90
69418;DHT22;56610;48.872;2.400;2023-01-15T17:35:21;10.00;99.90
69418;DHT22;56610;48.872;2.400;2023-01-15T17:37:47;10.00;99.90
69418;DHT22;56610;48.872;2.400;2023-01-15T17:40:13;10.00;99.90
69418;DHT22;56610;48.872;2.400;2023-01-15T17:42:38;10.00;99.90
69418;DHT22;56610;48.872;2.400;2023-01-15T17:45:04;10.20;99.90
69418;DHT22;56610;48.872;2.400;2023-01-15T17:47:30;10.20;99.90
69418;DHT22;56610;48.872;2.400;2023-01-15T17:49:55;10.20;99.90
69418;DHT22;56610;48.872;2.400;2023-01-15T17:52:21;10.30;99.90
69418;DHT22;56610;48.872;2.400;2023-01-15T17:54:47;10.20;99.90
69418;DHT22;56610;48.872;2.400;2023-01-15T17:57:31;10.20;99.90
69418;DHT22;56610;48.872;2.400;2023-01-15T18:00:17;10.00;99.90
69418;DHT22;56610;48.872;2.400;2023-01-15T18:03:01;10.00;99.90
69418;DHT22;56610;48.872;2.400;2023-01-15T18:05:47;10.00;99.90
69418;DHT22;56610;48.872;2.400;2023-01-15T18:08:15;9.90;99.90